Time;durP1;ratioP1;P1;durP2;ratioP2;P2;SDS_P1;SDS_P2;PMS_P1;PMS_P2;Temp;Humidity;BMP_temperature;BMP_pressure;BME280_temperature;BME280_humidity;BME280_pressure;Samples;Min_cycle;Max_cycle;Signal;HPM_P1;HPM_P2
2022/09/07 00:01:00;;;;;;;10.70;4.37;;;18.50;99.90;;;;;;5030427;28;20202;-49
2022/09/07 00:03:28;;;;;;;4.33;4.17;;;18.50;99.90;;;;;;5032354;28;20202;-48
2022/09/07 00:05:55;;;;;;;4.87;4.47;;;18.50;99.90;;;;;;5028426;28;20203;-48
2022/09/07 00:08:24;;;;;;;8.77;4.93;;;18.50;99.90;;;;;;5032626;28;20199;-48
2022/09/07 00:10:55;;;;;;;4.63;4.20;;;18.40;99.90;;;;;;5024064;28;20257;-49
2022/09/07 00:13:23;;;;;;;5.80;5.07;;;18.40;99.90;;;;;;5024025;28;20481;-48
2022/09/07 00:15:50;;;;;;;7.20;5.27;;;18.30;99.90;;;;;;5031165;28;20206;-49
2022/09/07 00:18:19;;;;;;;6.43;5.87;;;18.30;99.90;;;;;;5032923;28;20209;-49
2022/09/07 00:20:47;;;;;;;4.17;3.87;;;18.40;99.90;;;;;;5023920;28;20206;-49
2022/09/07 00:23:16;;;;;;;6.63;4.67;;;18.40;99.90;;;;;;5033928;28;20294;-48
2022/09/07 00:25:43;;;;;;;6.23;4.67;;;18.40;99.90;;;;;;5031531;28;20209;-48
2022/09/07 00:28:10;;;;;;;5.97;5.40;;;18.30;99.90;;;;;;5032829;28;20219;-49
2022/09/07 00:30:41;;;;;;;6.37;5.87;;;18.30;99.90;;;;;;5023574;28;20231;-49
2022/09/07 00:33:09;;;;;;;6.67;5.03;;;18.30;99.90;;;;;;5032302;28;20680;-48
2022/09/07 00:35:45;;;;;;;5.70;5.20;;;18.30;99.90;;;;;;5028201;28;20209;-48
2022/09/07 00:38:16;;;;;;;5.73;5.23;;;18.20;99.90;;;;;;5030656;28;20579;-49
2022/09/07 00:40:43;;;;;;;4.67;4.37;;;18.30;99.90;;;;;;5031274;28;20203;-48
2022/09/07 00:43:15;;;;;;;4.67;3.67;;;18.30;99.90;;;;;;5027499;28;20211;-48
2022/09/07 00:45:42;;;;;;;5.27;4.27;;;18.30;99.90;;;;;;5029112;28;20198;-48
2022/09/07 00:48:17;;;;;;;3.47;3.17;;;18.40;99.90;;;;;;5031075;28;20228;-48
2022/09/07 00:50:50;;;;;;;4.17;3.33;;;18.40;99.90;;;;;;5028281;28;20208;-48
2022/09/07 00:53:23;;;;;;;3.97;3.63;;;18.40;99.90;;;;;;5033558;28;20202;-48
2022/09/07 00:55:51;;;;;;;5.43;4.03;;;18.40;99.90;;;;;;5032321;28;20203;-48
2022/09/07 00:58:21;;;;;;;5.57;4.10;;;18.50;99.90;;;;;;5024004;28;20202;-49
2022/09/07 01:00:49;;;;;;;3.83;3.33;;;18.40;99.90;;;;;;5030893;28;20584;-48
2022/09/07 01:03:24;;;;;;;3.90;3.70;;;18.50;99.90;;;;;;5026337;28;20209;-49
2022/09/07 01:05:58;;;;;;;3.27;2.97;;;18.40;99.90;;;;;;5032014;28;20300;-48
2022/09/07 01:08:25;;;;;;;4.80;3.47;;;18.40;99.90;;;;;;5032400;28;20206;-48
2022/09/07 01:10:52;;;;;;;3.20;3.00;;;18.40;99.90;;;;;;5030219;28;20201;-47
2022/09/07 01:13:20;;;;;;;5.93;3.63;;;18.40;99.90;;;;;;5029441;28;20210;-49
2022/09/07 01:16:03;;;;;;;4.03;3.83;;;18.40;99.90;;;;;;5030022;28;20652;-48
2022/09/07 01:18:38;;;;;;;3.33;3.10;;;18.40;99.90;;;;;;5027983;28;20672;-48
2022/09/07 01:21:22;;;;;;;2.83;2.47;;;18.40;99.90;;;;;;5030624;28;20197;-48
2022/09/07 01:24:38;;;;;;;2.80;2.03;;;18.40;99.90;;;;;;5030182;28;20208;-48
2022/09/07 01:27:47;;;;;;;2.87;2.17;;;18.40;99.90;;;;;;5028633;28;20627;-48
2022/09/07 01:30:18;;;;;;;2.83;2.63;;;18.50;99.90;;;;;;5014988;28;20297;-48
2022/09/07 01:33:07;;;;;;;3.37;2.07;;;18.50;99.90;;;;;;5030598;28;20212;-48
2022/09/07 01:35:41;;;;;;;4.30;3.80;;;18.50;99.90;;;;;;5023385;28;20209;-48
2022/09/07 01:38:18;;;;;;;4.33;2.73;;;18.50;99.90;;;;;;5023123;28;20870;-49
2022/09/07 01:40:53;;;;;;;3.50;3.20;;;18.50;99.90;;;;;;5031960;28;20296;-48
2022/09/07 01:43:29;;;;;;;2.87;2.47;;;18.40;99.90;;;;;;5033347;28;20196;-48
2022/09/07 01:45:59;;;;;;;2.97;2.87;;;18.40;99.90;;;;;;5023530;28;20202;-48
2022/09/07 01:48:27;;;;;;;4.77;3.83;;;18.40;99.90;;;;;;5030511;28;20208;-48
2022/09/07 01:51:00;;;;;;;4.07;3.23;;;18.30;99.90;;;;;;5029490;28;20257;-48
2022/09/07 01:53:33;;;;;;;5.40;4.03;;;18.40;99.90;;;;;;5031569;28;20202;-48
2022/09/07 01:56:05;;;;;;;3.43;3.07;;;18.40;99.90;;;;;;5030799;28;20202;-49
2022/09/07 01:58:38;;;;;;;3.43;3.13;;;18.30;99.90;;;;;;5027651;28;20206;-49
2022/09/07 02:01:10;;;;;;;3.90;2.93;;;18.30;99.90;;;;;;5031142;28;20282;-49
2022/09/07 02:03:44;;;;;;;3.77;3.10;;;18.30;99.90;;;;;;5028404;28;20284;-49
2022/09/07 02:06:16;;;;;;;5.70;3.27;;;18.30;99.90;;;;;;5031369;28;20225;-49
2022/09/07 02:08:51;;;;;;;4.23;3.90;;;18.30;99.90;;;;;;5029447;28;20564;-49
2022/09/07 02:11:21;;;;;;;4.17;3.53;;;18.30;99.90;;;;;;5028028;28;20685;-49
2022/09/07 02:13:53;;;;;;;3.47;3.17;;;18.30;99.90;;;;;;5022457;28;20207;-49
2022/09/07 02:16:26;;;;;;;5.70;3.57;;;18.20;99.90;;;;;;5029464;28;20226;-49
2022/09/07 02:18:56;;;;;;;4.33;3.10;;;18.10;99.90;;;;;;5028063;28;20710;-49
2022/09/07 02:21:28;;;;;;;4.43;3.70;;;18.10;99.90;;;;;;5025636;28;20203;-49
2022/09/07 02:24:00;;;;;;;4.37;3.57;;;18.10;99.90;;;;;;5030903;28;20229;-49
2022/09/07 02:26:28;;;;;;;8.93;3.67;;;18.20;99.90;;;;;;5029594;28;20708;-48
2022/09/07 02:28:56;;;;;;;5.13;3.53;;;18.20;99.90;;;;;;5028914;28;20664;-49
2022/09/07 02:31:25;;;;;;;3.83;3.63;;;18.20;99.90;;;;;;5031252;28;20197;-49
2022/09/07 02:33:52;;;;;;;5.97;3.87;;;18.20;99.90;;;;;;5030974;28;20684;-49
2022/09/07 02:36:23;;;;;;;4.53;4.13;;;18.20;99.90;;;;;;5029060;28;20230;-49
2022/09/07 02:38:50;;;;;;;4.57;3.33;;;18.30;99.90;;;;;;5028600;28;20194;-48
2022/09/07 02:41:31;;;;;;;4.00;3.13;;;18.30;99.90;;;;;;5030022;28;20556;-49
2022/09/07 02:43:58;;;;;;;4.10;2.90;;;18.30;99.90;;;;;;5030865;28;20209;-49
2022/09/07 02:46:41;;;;;;;3.33;3.23;;;18.30;99.90;;;;;;5030846;28;20243;-49
2022/09/07 02:49:16;;;;;;;3.23;2.87;;;18.20;99.90;;;;;;5025726;28;20207;-49
2022/09/07 02:51:51;;;;;;;3.03;2.70;;;18.30;99.90;;;;;;5026984;28;20206;-49
2022/09/07 02:54:32;;;;;;;3.63;3.33;;;18.20;99.90;;;;;;5028693;28;20206;-49
2022/09/07 02:57:11;;;;;;;4.63;3.90;;;18.30;99.90;;;;;;5031054;28;20227;-49
2022/09/07 02:59:53;;;;;;;7.60;2.53;;;18.30;99.90;;;;;;5022164;28;20209;-49
2022/09/07 03:02:29;;;;;;;3.87;3.67;;;18.30;99.90;;;;;;5030419;28;20207;-49
2022/09/07 03:05:02;;;;;;;5.33;3.73;;;18.30;99.90;;;;;;5028775;28;20206;-49
2022/09/07 03:07:34;;;;;;;6.47;3.70;;;18.30;99.90;;;;;;5028357;28;20337;-49
2022/09/07 03:10:04;;;;;;;3.27;3.00;;;18.20;99.90;;;;;;5027428;28;20309;-49
2022/09/07 03:12:40;;;;;;;2.63;2.53;;;18.20;99.90;;;;;;5033297;28;20205;-49
2022/09/07 03:15:10;;;;;;;3.13;2.97;;;18.20;99.90;;;;;;5024348;28;20209;-49
2022/09/07 03:17:39;;;;;;;3.40;3.10;;;18.20;99.90;;;;;;5031132;28;20220;-49
2022/09/07 03:20:07;;;;;;;3.00;2.57;;;18.10;99.90;;;;;;5031603;28;20202;-48
2022/09/07 03:22:34;;;;;;;2.83;2.73;;;18.10;99.90;;;;;;5029436;28;20291;-49
2022/09/07 03:25:03;;;;;;;3.07;2.70;;;18.00;99.90;;;;;;5033958;28;20202;-48
2022/09/07 03:27:31;;;;;;;3.57;3.13;;;18.00;99.90;;;;;;5030246;28;20228;-48
2022/09/07 03:29:58;;;;;;;3.20;2.10;;;17.90;99.90;;;;;;5031341;28;20281;-49
2022/09/07 03:32:29;;;;;;;6.07;3.20;;;17.90;99.90;;;;;;5030558;28;20210;-49
2022/09/07 03:34:58;;;;;;;2.83;2.63;;;17.90;99.90;;;;;;5031957;28;20209;-49
2022/09/07 03:37:25;;;;;;;3.50;3.20;;;17.80;99.90;;;;;;5033172;28;20238;-49
2022/09/07 03:39:52;;;;;;;2.97;2.80;;;17.80;99.90;;;;;;5029835;28;20195;-49
2022/09/07 03:42:20;;;;;;;3.43;3.03;;;17.80;99.90;;;;;;5024105;28;20199;-49
2022/09/07 03:44:48;;;;;;;4.73;3.27;;;17.80;99.90;;;;;;5032182;28;20198;-49
2022/09/07 03:47:15;;;;;;;4.63;3.17;;;17.80;99.90;;;;;;5032390;28;20585;-49
2022/09/07 03:49:43;;;;;;;3.50;3.20;;;17.90;99.90;;;;;;5029236;28;20707;-49
2022/09/07 03:52:11;;;;;;;2.80;2.70;;;18.00;99.90;;;;;;5032558;28;20198;-49
2022/09/07 03:54:38;;;;;;;3.60;3.30;;;18.00;99.90;;;;;;5032413;28;20308;-49
2022/09/07 03:57:06;;;;;;;4.90;3.20;;;18.00;99.90;;;;;;5032493;28;20309;-49
2022/09/07 03:59:33;;;;;;;3.33;2.97;;;17.90;99.90;;;;;;5023810;28;20210;-49
2022/09/07 04:02:01;;;;;;;3.30;3.10;;;17.90;99.90;;;;;;5030388;28;20575;-49
2022/09/07 04:04:28;;;;;;;3.43;3.23;;;17.90;99.90;;;;;;5029505;28;20194;-49
2022/09/07 04:06:55;;;;;;;3.77;3.47;;;17.90;99.90;;;;;;5031238;28;20226;-49
2022/09/07 04:09:24;;;;;;;2.87;2.67;;;17.80;99.90;;;;;;5024067;28;20195;-49
2022/09/07 04:11:51;;;;;;;2.90;2.70;;;17.90;99.90;;;;;;5032913;28;20256;-49
2022/09/07 04:14:18;;;;;;;6.87;3.80;;;17.80;99.90;;;;;;5032451;28;20214;-49
2022/09/07 04:16:45;;;;;;;3.50;3.30;;;17.90;99.90;;;;;;5028533;28;20218;-49
2022/09/07 04:19:13;;;;;;;4.03;3.67;;;18.00;99.90;;;;;;5030623;28;20230;-48
2022/09/07 04:21:40;;;;;;;3.67;3.47;;;18.10;99.90;;;;;;5032599;28;20201;-49
2022/09/07 04:24:07;;;;;;;3.40;3.20;;;18.00;99.90;;;;;;5031496;28;20575;-49
2022/09/07 04:26:36;;;;;;;5.93;3.80;;;18.00;99.90;;;;;;5031359;28;20218;-48
2022/09/07 04:29:05;;;;;;;5.50;4.07;;;18.10;99.90;;;;;;5030392;28;20207;-48
2022/09/07 04:31:34;;;;;;;5.10;4.67;;;18.20;99.90;;;;;;5031527;28;20223;-50
2022/09/07 04:34:02;;;;;;;4.07;3.80;;;18.10;99.90;;;;;;5031136;28;20208;-49
2022/09/07 04:36:29;;;;;;;4.70;3.47;;;18.10;99.90;;;;;;5031831;28;20214;-49
2022/09/07 04:38:58;;;;;;;4.90;4.23;;;18.00;99.90;;;;;;5032844;28;20804;-49
2022/09/07 04:41:27;;;;;;;4.73;4.40;;;17.90;99.90;;;;;;5027513;28;20195;-49
2022/09/07 04:43:56;;;;;;;3.73;3.20;;;17.80;99.90;;;;;;5031171;28;20218;-49
2022/09/07 04:46:26;;;;;;;5.27;4.17;;;17.80;99.90;;;;;;5030806;28;20222;-49
2022/09/07 04:48:54;;;;;;;5.13;4.23;;;17.70;99.90;;;;;;5030405;28;20197;-49
2022/09/07 04:51:23;;;;;;;4.27;3.73;;;17.70;99.90;;;;;;5034281;28;20242;-49
2022/09/07 04:53:52;;;;;;;15.27;12.30;;;17.70;99.90;;;;;;5030847;28;20202;-49
2022/09/07 04:56:21;;;;;;;9.93;8.47;;;17.70;99.90;;;;;;5031391;28;20253;-49
2022/09/07 04:58:49;;;;;;;8.73;7.47;;;17.70;99.90;;;;;;5029904;28;20260;-49
2022/09/07 05:01:21;;;;;;;8.23;7.40;;;17.70;99.90;;;;;;5030863;28;20202;-49
2022/09/07 05:03:49;;;;;;;10.93;7.60;;;17.60;99.90;;;;;;5030679;28;20210;-49
2022/09/07 05:06:18;;;;;;;7.40;6.80;;;17.60;99.90;;;;;;5030898;28;20222;-49
2022/09/07 05:08:46;;;;;;;8.63;6.23;;;17.60;99.90;;;;;;5030396;28;20590;-49
2022/09/07 05:11:15;;;;;;;8.57;5.67;;;17.70;99.90;;;;;;5030860;28;20211;-49
2022/09/07 05:13:42;;;;;;;7.27;5.00;;;17.70;99.90;;;;;;5032394;28;20195;-48
2022/09/07 05:16:10;;;;;;;7.17;6.50;;;17.70;99.90;;;;;;5026820;28;20229;-49
2022/09/07 05:18:39;;;;;;;5.53;5.03;;;17.70;99.90;;;;;;5030479;28;20191;-49
2022/09/07 05:21:11;;;;;;;4.47;4.07;;;17.80;99.90;;;;;;5029257;28;20206;-49
2022/09/07 05:23:39;;;;;;;3.73;3.50;;;17.80;99.90;;;;;;5026444;28;20225;-49
2022/09/07 05:26:06;;;;;;;10.27;4.60;;;17.90;99.90;;;;;;5022459;28;20199;-48
2022/09/07 05:28:34;;;;;;;6.00;4.43;;;17.90;99.90;;;;;;5029140;28;20194;-49
2022/09/07 05:31:06;;;;;;;5.27;3.37;;;17.90;99.90;;;;;;5028901;28;20218;-49
2022/09/07 05:33:34;;;;;;;4.17;3.83;;;17.90;99.90;;;;;;5024481;28;20218;-49
2022/09/07 05:36:04;;;;;;;2.77;2.57;;;17.90;99.90;;;;;;5031164;28;20575;-49
2022/09/07 05:38:31;;;;;;;5.13;2.73;;;17.90;99.90;;;;;;5023766;28;20202;-48
2022/09/07 05:41:02;;;;;;;3.83;3.03;;;17.90;99.90;;;;;;5022608;28;20203;-48
2022/09/07 05:43:39;;;;;;;3.27;2.87;;;17.90;99.90;;;;;;5026396;28;20207;-48
2022/09/07 05:46:09;;;;;;;4.17;3.03;;;17.90;99.90;;;;;;5028313;28;20202;-48
2022/09/07 05:48:37;;;;;;;4.80;3.40;;;17.80;99.90;;;;;;5030257;28;20203;-49
2022/09/07 05:51:22;;;;;;;3.17;2.80;;;17.80;99.90;;;;;;5020987;28;20306;-49
2022/09/07 05:53:49;;;;;;;3.57;3.27;;;17.80;99.90;;;;;;5026841;28;20221;-49
2022/09/07 05:56:17;;;;;;;3.87;3.57;;;17.80;99.90;;;;;;5029645;28;20226;-48
2022/09/07 05:58:48;;;;;;;3.07;2.90;;;17.90;99.90;;;;;;5019910;28;20220;-48
2022/09/07 06:01:16;;;;;;;4.03;3.40;;;17.80;99.90;;;;;;5031147;28;20194;-49
2022/09/07 06:03:44;;;;;;;5.00;3.80;;;17.80;99.90;;;;;;5029493;28;20203;-48
2022/09/07 06:06:19;;;;;;;3.93;3.60;;;17.80;99.90;;;;;;5029754;28;20230;-48
2022/09/07 06:08:48;;;;;;;4.00;3.63;;;17.90;99.90;;;;;;5030975;28;20233;-47
2022/09/07 06:11:18;;;;;;;4.10;3.67;;;17.90;99.90;;;;;;5024264;28;21169;-48
2022/09/07 06:13:45;;;;;;;4.23;3.70;;;17.90;99.90;;;;;;5028326;28;20206;-48
2022/09/07 06:16:14;;;;;;;3.77;3.43;;;18.00;99.90;;;;;;5029334;28;20273;-48
2022/09/07 06:18:42;;;;;;;3.93;3.67;;;18.00;99.90;;;;;;5027054;28;20206;-48
2022/09/07 06:21:11;;;;;;;3.33;3.13;;;18.00;99.90;;;;;;5030262;28;20202;-48
2022/09/07 06:23:41;;;;;;;3.33;3.03;;;18.10;99.90;;;;;;5029479;28;20205;-48
2022/09/07 06:26:09;;;;;;;4.63;3.67;;;18.10;99.90;;;;;;5031101;28;20226;-48
2022/09/07 06:28:38;;;;;;;6.20;3.30;;;18.10;99.90;;;;;;5030948;28;20229;-50
2022/09/07 06:31:07;;;;;;;6.25;3.95;;;18.20;99.90;;;;;;5025960;28;20500;-50
2022/09/07 06:33:35;;;;;;;3.80;3.60;;;18.20;99.90;;;;;;5030483;28;21364;-49
2022/09/07 06:36:03;;;;;;;5.90;3.23;;;18.20;99.90;;;;;;5030757;28;20199;-48
2022/09/07 06:38:31;;;;;;;7.10;3.43;;;18.20;99.90;;;;;;5031777;28;20684;-49
2022/09/07 06:41:03;;;;;;;3.50;3.10;;;18.20;99.90;;;;;;5030836;28;20202;-49
2022/09/07 06:43:30;;;;;;;3.63;3.20;;;18.10;99.90;;;;;;5034323;28;20304;-49
2022/09/07 06:45:57;;;;;;;4.07;3.07;;;18.10;99.90;;;;;;5034249;28;20245;-48
2022/09/07 06:48:25;;;;;;;5.53;2.80;;;18.20;99.90;;;;;;5032893;28;20212;-48
2022/09/07 06:50:56;;;;;;;6.07;3.43;;;18.10;99.90;;;;;;5025109;28;20696;-48
2022/09/07 06:53:24;;;;;;;3.57;3.27;;;18.10;99.90;;;;;;5034378;28;20199;-49
2022/09/07 06:55:51;;;;;;;3.93;2.80;;;18.10;99.90;;;;;;5034283;28;20195;-48
2022/09/07 06:58:19;;;;;;;3.30;2.97;;;18.10;99.90;;;;;;5033437;28;20206;-49
2022/09/07 07:00:47;;;;;;;4.37;3.80;;;18.10;99.90;;;;;;5034379;28;20299;-49
2022/09/07 07:03:18;;;;;;;3.33;3.23;;;18.10;99.90;;;;;;5034128;28;20579;-49
2022/09/07 07:05:51;;;;;;;2.40;2.30;;;18.20;99.90;;;;;;5029902;28;20217;-48
2022/09/07 07:08:19;;;;;;;4.37;2.97;;;18.20;99.90;;;;;;5032465;28;20206;-49
2022/09/07 07:10:46;;;;;;;4.20;2.93;;;18.20;99.90;;;;;;5033552;28;20214;-49
2022/09/07 07:13:16;;;;;;;3.60;3.13;;;18.30;99.90;;;;;;5033734;28;20209;-49
2022/09/07 07:15:45;;;;;;;6.03;3.30;;;18.30;99.90;;;;;;5033549;28;20209;-48
2022/09/07 07:18:13;;;;;;;4.40;2.50;;;18.40;99.90;;;;;;5032549;28;20248;-50
2022/09/07 07:20:42;;;;;;;2.60;2.50;;;18.40;99.90;;;;;;5029755;28;20213;-48
2022/09/07 07:23:11;;;;;;;5.00;3.43;;;18.50;99.90;;;;;;5028609;28;20212;-48
2022/09/07 07:25:38;;;;;;;4.17;3.40;;;18.60;99.90;;;;;;5027630;28;20214;-48
2022/09/07 07:28:05;;;;;;;3.90;2.80;;;18.70;99.90;;;;;;5034745;28;20587;-48
2022/09/07 07:30:32;;;;;;;3.20;3.00;;;18.70;99.90;;;;;;5032213;28;20575;-48
2022/09/07 07:33:01;;;;;;;3.90;3.47;;;18.80;99.90;;;;;;5032055;28;20233;-47
2022/09/07 07:35:28;;;;;;;4.07;3.63;;;18.90;99.90;;;;;;5032142;28;20297;-49
2022/09/07 07:37:55;;;;;;;4.63;3.17;;;19.00;99.90;;;;;;5031699;28;20269;-48
2022/09/07 07:40:22;;;;;;;4.20;3.30;;;19.10;99.90;;;;;;5031640;28;20203;-48
2022/09/07 07:42:49;;;;;;;7.13;3.73;;;19.10;99.90;;;;;;5031386;28;20203;-49
2022/09/07 07:45:16;;;;;;;4.03;3.40;;;19.00;99.90;;;;;;5032826;28;20195;-49
2022/09/07 07:47:43;;;;;;;3.50;3.30;;;18.90;99.90;;;;;;5034781;28;20227;-49
2022/09/07 07:50:12;;;;;;;3.77;3.53;;;18.90;99.90;;;;;;5030175;28;20202;-49
2022/09/07 07:52:40;;;;;;;4.13;3.27;;;18.80;99.90;;;;;;5030846;28;20215;-47
2022/09/07 07:55:09;;;;;;;3.43;3.13;;;18.90;99.90;;;;;;5033394;28;20357;-49
2022/09/07 07:57:36;;;;;;;3.83;3.53;;;18.80;99.90;;;;;;5032351;28;20264;-49
2022/09/07 08:00:05;;;;;;;4.50;3.90;;;18.90;99.90;;;;;;5023848;28;20685;-52
2022/09/07 08:02:33;;;;;;;5.90;3.73;;;18.90;99.90;;;;;;5033686;28;20203;-48
2022/09/07 08:05:00;;;;;;;4.00;3.80;;;18.90;99.90;;;;;;5032745;28;20195;-48
2022/09/07 08:07:29;;;;;;;3.37;3.20;;;19.00;99.90;;;;;;5034614;28;20246;-48
2022/09/07 08:09:56;;;;;;;4.57;3.80;;;19.00;99.90;;;;;;5024092;28;21574;-49
2022/09/07 08:12:23;;;;;;;5.97;4.33;;;19.20;99.90;;;;;;5031495;28;20221;-49
2022/09/07 08:14:52;;;;;;;4.57;3.50;;;19.30;99.90;;;;;;5030026;28;20198;-48
2022/09/07 08:17:20;;;;;;;3.57;3.27;;;19.50;99.90;;;;;;5028892;28;20222;-48
2022/09/07 08:19:47;;;;;;;4.47;3.87;;;19.60;99.90;;;;;;5045118;28;20209;-49
2022/09/07 08:22:14;;;;;;;3.10;2.90;;;19.70;99.90;;;;;;5031690;28;20393;-48
2022/09/07 08:24:42;;;;;;;5.30;3.70;;;19.80;99.90;;;;;;5024193;28;20202;-49
2022/09/07 08:27:09;;;;;;;4.37;3.63;;;19.80;99.90;;;;;;5033052;28;20226;-49
2022/09/07 08:29:36;;;;;;;3.90;3.50;;;19.90;99.90;;;;;;5032656;28;20210;-48
2022/09/07 08:32:05;;;;;;;3.63;3.43;;;20.00;99.90;;;;;;5032552;28;20226;-48
2022/09/07 08:34:32;;;;;;;4.47;3.17;;;20.10;99.90;;;;;;5045337;28;20205;-49
2022/09/07 08:36:59;;;;;;;3.90;3.53;;;20.20;99.90;;;;;;5033003;28;20654;-47
2022/09/07 08:39:26;;;;;;;2.87;2.77;;;20.30;99.90;;;;;;5027827;28;20210;-48
2022/09/07 08:42:24;;;;;;;3.90;2.97;;;20.30;99.90;;;;;;5032636;28;20623;-48
2022/09/07 08:44:57;;;;;;;5.50;3.00;;;20.40;99.90;;;;;;5012671;28;20269;-49
2022/09/07 08:47:31;;;;;;;2.83;2.73;;;20.50;99.90;;;;;;5012997;28;20223;-49
2022/09/07 08:50:05;;;;;;;3.30;3.10;;;20.40;99.90;;;;;;5013499;28;20349;-48
2022/09/07 08:52:45;;;;;;;3.73;2.90;;;20.40;99.90;;;;;;5024203;28;20222;-49
2022/09/07 08:55:16;;;;;;;3.57;2.80;;;20.40;99.90;;;;;;5012560;28;20217;-50
2022/09/07 08:57:50;;;;;;;3.77;3.20;;;20.50;99.90;;;;;;5012383;28;20223;-49
2022/09/07 09:00:18;;;;;;;4.37;3.47;;;20.70;99.90;;;;;;5019061;28;20261;-50
2022/09/07 09:02:45;;;;;;;3.53;3.27;;;20.80;99.90;;;;;;5033468;28;20198;-50
2022/09/07 09:05:24;;;;;;;3.87;3.60;;;20.90;99.90;;;;;;5025651;28;20203;-49
2022/09/07 09:08:04;;;;;;;3.80;3.50;;;20.90;99.90;;;;;;5033016;28;20221;-49
2022/09/07 09:10:40;;;;;;;3.83;3.60;;;21.00;99.90;;;;;;5032835;28;20641;-49
2022/09/07 09:13:19;;;;;;;3.97;3.60;;;21.30;99.90;;;;;;5031526;28;20268;-49
2022/09/07 09:16:00;;;;;;;4.37;3.43;;;22.00;99.90;;;;;;5032063;28;20214;-49
2022/09/07 09:18:36;;;;;;;4.37;2.97;;;23.00;99.90;;;;;;5037904;28;20633;-49
2022/09/07 09:21:06;;;;;;;4.57;3.10;;;23.90;99.90;;;;;;5024555;28;20202;-49
2022/09/07 09:23:39;;;;;;;3.10;2.97;;;24.70;99.90;;;;;;5031838;28;20198;-50
2022/09/07 09:26:14;;;;;;;3.43;2.37;;;24.90;99.90;;;;;;5032431;28;20260;-49
2022/09/07 09:28:42;;;;;;;4.00;2.47;;;24.60;99.90;;;;;;5013061;28;20272;-49
2022/09/07 09:31:18;;;;;;;4.43;2.97;;;24.30;99.90;;;;;;5011818;28;20219;-49
2022/09/07 09:34:06;;;;;;;3.27;2.77;;;24.10;99.90;;;;;;5025481;28;20318;-49
2022/09/07 09:36:40;;;;;;;2.67;2.43;;;24.00;99.90;;;;;;5026604;28;20275;-49
2022/09/07 09:39:31;;;;;;;4.33;3.00;;;23.80;99.90;;;;;;5030119;28;20202;-49
2022/09/07 09:42:12;;;;;;;10.63;3.27;;;23.60;99.90;;;;;;5030450;28;20237;-49
2022/09/07 09:44:42;;;;;;;3.87;3.07;;;23.40;99.90;;;;;;5028606;28;20257;-48
2022/09/07 09:47:25;;;;;;;4.73;3.77;;;23.40;99.90;;;;;;5028277;28;20226;-49
2022/09/07 09:49:53;;;;;;;4.33;3.80;;;24.10;99.90;;;;;;5029695;28;20195;-48
2022/09/07 09:52:23;;;;;;;3.53;3.17;;;24.70;99.90;;;;;;5025470;28;20226;-49
2022/09/07 09:54:55;;;;;;;2.80;2.30;;;25.20;99.90;;;;;;5029341;28;20283;-49
2022/09/07 09:57:48;;;;;;;5.70;2.73;;;25.60;99.90;;;;;;5029503;28;20304;-49
2022/09/07 10:00:18;;;;;;;6.33;3.23;;;26.10;99.90;;;;;;5027601;28;20198;-50
2022/09/07 10:03:04;;;;;;;3.63;2.97;;;26.80;99.90;;;;;;5030075;28;20276;-49
2022/09/07 10:05:35;;;;;;;3.47;3.08;;;27.50;99.90;;;;;;5030085;28;20647;-49
2022/09/07 10:08:03;;;;;;;4.57;2.40;;;27.90;99.90;;;;;;5029807;28;20214;-49
2022/09/07 10:10:31;;;;;;;2.88;2.60;;;28.30;99.90;;;;;;5030156;28;20202;-49
2022/09/07 10:12:58;;;;;;;3.13;2.08;;;28.60;99.90;;;;;;5028822;28;20226;-49
2022/09/07 10:15:35;;;;;;;6.13;1.88;;;28.10;99.90;;;;;;5029741;28;20202;-50
2022/09/07 10:18:04;;;;;;;1.73;1.73;;;28.40;99.90;;;;;;5034279;28;20218;-49
2022/09/07 10:20:36;;;;;;;2.55;2.35;;;28.60;99.90;;;;;;5031501;28;20194;-49
2022/09/07 10:23:04;;;;;;;2.15;2.03;;;28.60;99.90;;;;;;5032404;28;20195;-49
2022/09/07 10:25:35;;;;;;;2.13;2.03;;;28.60;99.90;;;;;;5034932;28;20261;-49
2022/09/07 10:28:12;;;;;;;3.03;2.75;;;28.90;99.90;;;;;;5038266;28;20237;-49
2022/09/07 10:30:55;;;;;;;3.33;2.10;;;28.90;99.90;;;;;;5033912;28;20221;-49
2022/09/07 10:33:28;;;;;;;1.95;1.75;;;29.10;99.90;;;;;;5034845;28;20642;-50
2022/09/07 10:36:03;;;;;;;3.42;2.17;;;29.40;99.90;;;;;;5035495;28;20257;-49
2022/09/07 10:38:34;;;;;;;4.68;1.73;;;28.90;99.90;;;;;;5034917;28;20264;-50
2022/09/07 10:41:04;;;;;;;2.05;1.75;;;29.10;99.90;;;;;;5039344;28;20199;-51
2022/09/07 10:43:44;;;;;;;3.40;1.90;;;29.20;99.90;;;;;;5029258;28;20199;-50
2022/09/07 10:46:29;;;;;;;3.80;1.95;;;28.80;99.90;;;;;;5027751;28;20246;-50
2022/09/07 10:49:11;;;;;;;1.98;1.73;;;28.50;99.90;;;;;;5034553;28;20198;-50
2022/09/07 10:51:44;;;;;;;2.45;1.98;;;28.40;99.90;;;;;;5030657;28;20209;-50
2022/09/07 10:54:19;;;;;;;2.58;1.98;;;28.20;99.90;;;;;;5030682;28;20300;-49
2022/09/07 10:56:57;;;;;;;2.58;1.65;;;28.00;99.90;;;;;;5029711;28;20291;-49
2022/09/07 10:59:35;;;;;;;2.22;1.80;;;27.80;99.90;;;;;;5033516;28;20256;-49
2022/09/07 11:02:15;;;;;;;2.35;1.50;;;27.70;99.90;;;;;;5034055;28;20190;-49
2022/09/07 11:04:51;;;;;;;2.53;2.13;;;27.60;99.90;;;;;;5031739;28;20572;-49
2022/09/07 11:07:33;;;;;;;2.38;1.23;;;27.50;99.90;;;;;;5033006;28;20226;-49
2022/09/07 11:10:10;;;;;;;1.40;1.40;;;27.40;99.90;;;;;;5035238;28;20206;-49
2022/09/07 11:12:39;;;;;;;1.90;1.80;;;27.10;99.90;;;;;;5029543;28;20214;-49
2022/09/07 11:15:18;;;;;;;1.92;1.83;;;27.20;99.90;;;;;;5028951;28;20276;-49
2022/09/07 11:17:51;;;;;;;3.90;1.77;;;27.30;99.90;;;;;;5032799;28;20708;-49
2022/09/07 11:20:25;;;;;;;1.42;1.33;;;27.10;99.90;;;;;;5029405;28;20195;-49
2022/09/07 11:22:59;;;;;;;3.33;1.08;;;27.20;99.90;;;;;;5030979;28;20634;-51
2022/09/07 11:25:33;;;;;;;1.05;1.05;;;27.40;99.90;;;;;;5031944;28;20210;-49
2022/09/07 11:28:07;;;;;;;2.13;1.13;;;27.40;99.90;;;;;;5033880;28;20214;-50
2022/09/07 11:30:42;;;;;;;1.10;1.10;;;27.20;99.90;;;;;;5036258;28;20218;-49
2022/09/07 11:33:18;;;;;;;1.70;1.60;;;27.30;99.90;;;;;;5031207;28;20218;-49
2022/09/07 11:35:50;;;;;;;1.90;0.88;;;27.20;99.90;;;;;;5031636;28;20566;-49
2022/09/07 11:38:28;;;;;;;1.25;1.23;;;27.10;99.90;;;;;;5033689;28;20202;-50
2022/09/07 11:41:18;;;;;;;1.52;1.05;;;26.90;99.90;;;;;;5032378;28;20194;-49
2022/09/07 11:43:57;;;;;;;2.78;1.33;;;27.00;99.90;;;;;;5030122;28;20191;-49
2022/09/07 11:46:31;;;;;;;1.40;1.30;;;27.20;99.90;;;;;;5032112;28;20292;-49
2022/09/07 11:49:00;;;;;;;1.77;1.35;;;27.10;99.90;;;;;;5032481;28;20198;-49
2022/09/07 11:51:38;;;;;;;1.27;1.13;;;27.20;99.90;;;;;;5032130;28;20191;-49
2022/09/07 11:54:19;;;;;;;1.45;1.35;;;27.20;99.90;;;;;;5031481;28;20215;-49
2022/09/07 11:56:54;;;;;;;3.05;1.30;;;27.20;99.90;;;;;;5032140;28;20284;-49
2022/09/07 11:59:37;;;;;;;2.58;1.48;;;27.30;99.90;;;;;;5034215;28;20210;-49
2022/09/07 12:02:44;;;;;;;3.70;1.63;;;27.30;99.90;;;;;;5034264;28;20206;-49
2022/09/07 12:05:22;;;;;;;1.60;1.17;;;27.00;99.90;;;;;;5028828;28;20201;-49
2022/09/07 12:08:21;;;;;;;2.58;1.33;;;27.00;99.90;;;;;;5032024;28;20214;-49
2022/09/07 12:11:08;;;;;;;1.05;1.00;;;26.90;99.90;;;;;;5031800;28;20265;-49
2022/09/07 12:13:46;;;;;;;2.97;1.90;;;26.90;99.90;;;;;;5024347;28;20218;-49
2022/09/07 12:16:21;;;;;;;2.35;1.23;;;27.00;99.90;;;;;;5031176;28;20222;-48
2022/09/07 12:19:11;;;;;;;2.22;1.40;;;26.90;99.90;;;;;;5031554;28;20205;-50
2022/09/07 12:21:43;;;;;;;3.50;1.17;;;27.00;99.90;;;;;;5031746;28;20203;-50
2022/09/07 12:24:44;;;;;;;1.10;1.00;;;27.00;99.90;;;;;;5031014;28;20195;-50
2022/09/07 12:27:37;;;;;;;2.53;1.50;;;26.90;99.90;;;;;;5031469;28;20253;-49
2022/09/07 12:30:50;;;;;;;2.78;1.45;;;26.90;99.90;;;;;;5030894;28;20213;-49
2022/09/07 12:33:32;;;;;;;2.35;1.20;;;26.80;99.90;;;;;;5029626;28;20218;-48
2022/09/07 12:36:00;;;;;;;4.15;1.00;;;26.90;99.90;;;;;;5031244;28;20734;-49
2022/09/07 12:39:18;;;;;;;3.33;1.65;;;26.80;99.90;;;;;;5031401;28;20202;-49
2022/09/07 12:41:51;;;;;;;0.90;0.90;;;26.80;99.90;;;;;;5030053;28;20282;-50
2022/09/07 12:44:24;;;;;;;1.15;0.90;;;26.60;99.90;;;;;;5029955;28;20198;-49
2022/09/07 12:46:54;;;;;;;2.67;1.08;;;26.70;99.90;;;;;;5031015;28;20218;-49
2022/09/07 12:49:55;;;;;;;1.98;1.50;;;26.80;99.90;;;;;;5031394;28;20229;-49
2022/09/07 12:52:45;;;;;;;5.20;2.38;;;26.90;99.90;;;;;;5030025;28;20664;-50
2022/09/07 12:55:26;;;;;;;2.70;1.27;;;26.80;99.90;;;;;;5027927;28;20278;-49
2022/09/07 12:58:01;;;;;;;1.83;0.88;;;26.90;99.90;;;;;;5031137;28;20230;-50
2022/09/07 13:00:37;;;;;;;1.90;1.65;;;26.90;99.90;;;;;;5028717;28;20206;-50
2022/09/07 13:03:29;;;;;;;6.63;1.95;;;27.00;99.90;;;;;;5030352;28;20632;-49
2022/09/07 13:06:02;;;;;;;2.40;2.20;;;27.10;99.90;;;;;;5029645;28;20650;-48
2022/09/07 13:08:59;;;;;;;2.38;1.50;;;27.10;99.90;;;;;;5032213;28;20198;-49
2022/09/07 13:11:38;;;;;;;1.52;1.20;;;27.00;99.90;;;;;;5013526;28;20282;-49
2022/09/07 13:14:17;;;;;;;2.05;1.40;;;27.00;99.90;;;;;;5028678;28;20222;-49